Time;durP1;ratioP1;P1;durP2;ratioP2;P2;SDS_P1;SDS_P2;PMS_P1;PMS_P2;Temp;Humidity;BMP_temperature;BMP_pressure;BME280_temperature;BME280_humidity;BME280_pressure;Samples;Min_cycle;Max_cycle;Signal;HPM_P1;HPM_P2
2023/09/25 00:00:45;;;;;;;5.97;3.05;;;487.00;2380.80;;;;;;5072573;28;20025;-74
2023/09/25 00:03:11;;;;;;;6.82;2.83;;;487.00;2380.80;;;;;;5072503;28;20017;-75
2023/09/25 00:05:37;;;;;;;7.68;3.03;;;487.00;2380.80;;;;;;5072474;28;20028;-75
2023/09/25 00:08:03;;;;;;;5.93;2.45;;;487.00;2380.80;;;;;;5072308;28;20043;-74
2023/09/25 00:10:31;;;;;;;5.35;2.45;;;487.00;2380.80;;;;;;5072533;28;20032;-75
2023/09/25 00:12:58;;;;;;;6.47;2.75;;;487.00;2380.80;;;;;;5072543;28;20465;-75
2023/09/25 00:15:25;;;;;;;5.68;2.92;;;487.00;2380.80;;;;;;5073210;28;20432;-76
2023/09/25 00:17:51;;;;;;;4.55;2.28;;;487.00;2380.80;;;;;;5075871;28;20052;-75
2023/09/25 00:20:20;;;;;;;5.47;2.20;;;487.00;2380.80;;;;;;5076133;28;20017;-74
2023/09/25 00:22:46;;;;;;;5.53;2.83;;;487.10;2380.80;;;;;;5075996;28;20045;-75
2023/09/25 00:25:12;;;;;;;5.50;2.78;;;487.10;2355.20;;;;;;5075839;28;20025;-75
2023/09/25 00:27:38;;;;;;;5.70;2.30;;;487.10;2304.00;;;;;;5075912;28;20473;-76
2023/09/25 00:30:08;;;;;;;6.72;2.30;;;487.10;2380.80;;;;;;5075472;28;20024;-76
2023/09/25 00:32:35;;;;;;;4.30;2.17;;;487.10;2380.80;;;;;;5075674;28;20017;-75
2023/09/25 00:35:01;;;;;;;4.90;2.42;;;487.20;2380.80;;;;;;5075618;28;20028;-76
2023/09/25 00:37:27;;;;;;;7.10;2.85;;;487.20;2380.80;;;;;;5075738;28;20027;-75
2023/09/25 00:39:53;;;;;;;4.57;2.33;;;487.20;2380.80;;;;;;5075168;28;20048;-76
2023/09/25 00:42:19;;;;;;;9.15;2.85;;;487.10;2252.80;;;;;;5075752;28;20028;-75
2023/09/25 00:44:44;;;;;;;4.47;2.33;;;487.10;2380.80;;;;;;5075266;28;20024;-75
2023/09/25 00:47:10;;;;;;;5.45;2.40;;;487.00;2380.80;;;;;;5075498;28;20021;-75
2023/09/25 00:49:36;;;;;;;3.15;1.77;;;486.90;2380.80;;;;;;5075511;28;20017;-74
2023/09/25 00:52:03;;;;;;;3.53;1.80;;;486.90;2380.80;;;;;;5075724;28;20357;-75
2023/09/25 00:54:31;;;;;;;5.28;2.13;;;486.80;2380.80;;;;;;5075254;28;20032;-75
2023/09/25 00:56:58;;;;;;;4.03;2.13;;;486.80;2380.80;;;;;;5075445;28;20024;-75
2023/09/25 00:59:26;;;;;;;3.83;1.73;;;486.80;2380.80;;;;;;5075132;28;20074;-74
2023/09/25 01:01:52;;;;;;;3.03;1.90;;;486.70;2380.80;;;;;;5075243;28;20104;-74
2023/09/25 01:04:18;;;;;;;5.82;2.53;;;486.70;2380.80;;;;;;5075153;28;20060;-76
2023/09/25 01:06:44;;;;;;;4.68;1.70;;;486.70;2380.80;;;;;;5075313;28;20532;-75
2023/09/25 01:09:12;;;;;;;5.75;2.17;;;486.50;2380.80;;;;;;5077989;28;20035;-74
2023/09/25 01:11:39;;;;;;;4.28;2.65;;;486.50;2380.80;;;;;;5079790;28;20062;-75
2023/09/25 01:14:05;;;;;;;4.15;1.80;;;486.50;2380.80;;;;;;5075815;28;20058;-74
2023/09/25 01:16:31;;;;;;;3.08;1.55;;;486.40;2380.80;;;;;;5075237;28;20021;-75
2023/09/25 01:18:57;;;;;;;7.32;2.00;;;486.40;2380.80;;;;;;5075194;28;20043;-75
2023/09/25 01:21:25;;;;;;;2.90;1.58;;;486.40;2380.80;;;;;;5075015;28;20465;-76
2023/09/25 01:23:50;;;;;;;3.22;1.80;;;486.40;2380.80;;;;;;5074741;28;20028;-75
2023/09/25 01:26:16;;;;;;;3.40;1.98;;;486.40;2380.80;;;;;;5073847;28;20046;-75
2023/09/25 01:28:42;;;;;;;5.20;2.20;;;486.40;2380.80;;;;;;5074731;28;20393;-74
2023/09/25 01:31:07;;;;;;;4.38;2.33;;;461.70;2380.80;;;;;;5073459;28;20029;-74
2023/09/25 01:33:34;;;;;;;3.45;1.90;;;461.70;2380.80;;;;;;5074270;28;20054;-74
2023/09/25 01:36:00;;;;;;;4.90;1.77;;;461.60;2380.80;;;;;;5074657;28;20024;-73
2023/09/25 01:38:27;;;;;;;7.78;2.10;;;461.70;2380.80;;;;;;5074446;28;20112;-75
2023/09/25 01:40:52;;;;;;;5.93;1.80;;;461.60;2380.80;;;;;;5074362;28;20110;-75
2023/09/25 01:43:18;;;;;;;3.60;1.90;;;461.70;2380.80;;;;;;5074226;28;20478;-74
2023/09/25 01:45:44;;;;;;;5.00;1.85;;;461.60;2380.80;;;;;;5074089;28;20028;-74
2023/09/25 01:48:09;;;;;;;3.42;1.58;;;461.70;2380.80;;;;;;5074274;28;20024;-75
2023/09/25 01:50:36;;;;;;;4.70;1.85;;;461.60;2380.80;;;;;;5074222;28;20021;-74
2023/09/25 01:53:03;;;;;;;5.90;2.28;;;461.50;2380.80;;;;;;5074208;28;20067;-75
2023/09/25 01:55:31;;;;;;;3.97;1.60;;;461.60;2380.80;;;;;;5074373;28;20017;-75
2023/09/25 01:57:57;;;;;;;4.25;1.73;;;461.60;2380.80;;;;;;5072655;28;20032;-74
2023/09/25 02:00:23;;;;;;;6.68;1.92;;;461.60;2380.80;;;;;;5074043;28;20020;-74
2023/09/25 02:02:49;;;;;;;22.42;3.50;;;486.40;2380.80;;;;;;5073691;28;20025;-75
2023/09/25 02:05:15;;;;;;;13.10;2.70;;;486.40;2380.80;;;;;;5074047;28;20052;-75
2023/09/25 02:07:41;;;;;;;11.43;3.22;;;461.70;2380.80;;;;;;5073863;28;20017;-75
2023/09/25 02:10:07;;;;;;;10.25;2.97;;;461.70;2380.80;;;;;;5073827;28;20029;-74
2023/09/25 02:12:33;;;;;;;7.28;1.90;;;461.60;2380.80;;;;;;5073677;28;20031;-74
2023/09/25 02:15:02;;;;;;;5.80;2.38;;;461.60;2380.80;;;;;;5073736;28;20385;-74
2023/09/25 02:17:29;;;;;;;7.75;1.88;;;461.50;2380.80;;;;;;5073668;28;20013;-74
2023/09/25 02:19:56;;;;;;;6.43;2.10;;;461.50;2380.80;;;;;;5073818;28;20029;-74
2023/09/25 02:22:22;;;;;;;4.20;1.60;;;461.40;2380.80;;;;;;5073724;28;20031;-73
2023/09/25 02:24:48;;;;;;;3.85;1.88;;;461.40;2380.80;;;;;;5073513;28;20049;-75
2023/09/25 02:27:14;;;;;;;3.28;1.35;;;461.20;2380.80;;;;;;5073506;28;20441;-75
2023/09/25 02:29:39;;;;;;;3.67;1.52;;;461.10;2124.80;;;;;;5084361;28;20085;-74
2023/09/25 02:32:05;;;;;;;5.55;1.40;;;461.10;2380.80;;;;;;5075930;28;20107;-75
2023/09/25 02:34:31;;;;;;;2.00;1.25;;;461.10;2380.80;;;;;;5073461;28;20032;-76
2023/09/25 02:36:56;;;;;;;6.28;1.40;;;461.20;2380.80;;;;;;5072284;28;20515;-75
2023/09/25 02:39:22;;;;;;;2.92;1.13;;;461.10;2380.80;;;;;;5073149;28;20053;-74
2023/09/25 02:41:48;;;;;;;3.20;1.20;;;461.00;2380.80;;;;;;5073348;28;20063;-74
2023/09/25 02:44:14;;;;;;;5.97;1.90;;;461.10;2380.80;;;;;;5073438;28;20028;-75
2023/09/25 02:46:39;;;;;;;4.07;1.20;;;461.20;2380.80;;;;;;5073105;28;20096;-74
2023/09/25 02:49:05;;;;;;;2.15;1.25;;;461.20;2380.80;;;;;;5073378;28;20025;-75
2023/09/25 02:51:31;;;;;;;9.07;1.50;;;461.20;2329.60;;;;;;5073160;28;20021;-74
2023/09/25 02:53:57;;;;;;;3.08;1.10;;;461.20;2176.00;;;;;;5073368;28;20074;-74
2023/09/25 02:56:23;;;;;;;5.97;1.83;;;461.40;2380.80;;;;;;5073212;28;20035;-75
2023/09/25 02:58:49;;;;;;;1.95;1.30;;;461.50;2380.80;;;;;;5073127;28;20024;-74
2023/09/25 03:01:14;;;;;;;5.50;1.55;;;461.50;2380.80;;;;;;5072874;28;20477;-74
2023/09/25 03:03:40;;;;;;;5.88;1.63;;;461.60;2380.80;;;;;;5073175;28;20024;-75
2023/09/25 03:06:06;;;;;;;4.57;1.67;;;461.50;2380.80;;;;;;5073213;28;20097;-73
2023/09/25 03:08:32;;;;;;;4.35;1.67;;;461.60;2329.60;;;;;;5072991;28;20068;-74
2023/09/25 03:10:57;;;;;;;4.43;1.45;;;461.60;2380.80;;;;;;5072867;28;20021;-75
2023/09/25 03:13:23;;;;;;;7.40;2.15;;;461.70;2380.80;;;;;;5072958;28;20039;-74
2023/09/25 03:15:49;;;;;;;5.72;1.85;;;461.70;2380.80;;;;;;5072771;28;20095;-74
2023/09/25 03:18:16;;;;;;;7.38;2.15;;;461.70;2380.80;;;;;;5073062;28;20025;-75
2023/09/25 03:20:41;;;;;;;7.47;2.35;;;461.70;2380.80;;;;;;5072767;28;20070;-74
2023/09/25 03:23:07;;;;;;;6.88;2.03;;;461.60;2380.80;;;;;;5072948;28;20024;-74
2023/09/25 03:25:37;;;;;;;4.93;2.38;;;461.70;2380.80;;;;;;5072958;28;20016;-74
2023/09/25 03:28:03;;;;;;;7.03;2.80;;;461.70;2380.80;;;;;;5072779;28;20104;-74
2023/09/25 03:30:29;;;;;;;6.55;2.30;;;461.60;2380.80;;;;;;5072581;28;20100;-74
2023/09/25 03:32:55;;;;;;;7.72;2.60;;;461.70;2380.80;;;;;;5072550;28;20016;-75
2023/09/25 03:35:23;;;;;;;5.50;2.58;;;461.70;2380.80;;;;;;5072561;28;20027;-74
2023/09/25 03:37:49;;;;;;;4.93;2.47;;;461.60;2380.80;;;;;;5072678;28;20029;-74
2023/09/25 03:40:15;;;;;;;4.55;2.33;;;461.70;2380.80;;;;;;5072277;28;20091;-74
2023/09/25 03:42:42;;;;;;;10.95;2.17;;;461.70;2380.80;;;;;;5071537;28;20504;-75
2023/09/25 03:45:08;;;;;;;5.22;2.20;;;461.70;2380.80;;;;;;5070289;28;20017;-75
2023/09/25 03:47:35;;;;;;;3.60;2.30;;;461.70;2380.80;;;;;;5072561;28;20040;-74
2023/09/25 03:50:04;;;;;;;6.22;2.63;;;461.70;2380.80;;;;;;5074217;28;20025;-76
2023/09/25 03:52:31;;;;;;;5.30;2.50;;;486.40;2380.80;;;;;;5076491;28;20017;-76
2023/09/25 03:54:56;;;;;;;7.75;2.70;;;486.50;2380.80;;;;;;5076542;28;19912;-76
2023/09/25 03:57:23;;;;;;;4.00;2.55;;;;;;;;;;5076518;28;20492;-74
2023/09/25 03:59:50;;;;;;;5.32;2.28;;;;;;;;;;5076213;28;20052;-75
2023/09/25 04:02:16;;;;;;;4.18;2.30;;;;;;;;;;5076282;28;20100;-75
2023/09/25 04:04:42;;;;;;;7.85;2.30;;;486.80;2380.80;;;;;;5076311;28;20385;-75
2023/09/25 04:07:07;;;;;;;4.25;2.20;;;486.70;2380.80;;;;;;5076310;28;20028;-74
2023/09/25 04:09:33;;;;;;;6.10;2.88;;;486.70;2380.80;;;;;;5076047;28;20051;-75
2023/09/25 04:11:59;;;;;;;6.13;2.97;;;486.70;2380.80;;;;;;5076002;28;20086;-75
2023/09/25 04:14:27;;;;;;;8.68;2.95;;;486.80;2380.80;;;;;;5076159;28;20032;-76
2023/09/25 04:16:54;;;;;;;5.97;2.70;;;486.70;2380.80;;;;;;5076219;28;20021;-74
2023/09/25 04:19:20;;;;;;;6.75;2.70;;;486.70;2380.80;;;;;;5075831;28;20020;-75
2023/09/25 04:21:47;;;;;;;3.78;2.63;;;486.70;2380.80;;;;;;5076006;28;20475;-75
2023/09/25 04:24:13;;;;;;;7.57;2.70;;;486.70;2380.80;;;;;;5075855;28;20408;-74
2023/09/25 04:26:42;;;;;;;7.50;3.30;;;486.90;2380.80;;;;;;5076182;28;20028;-74
2023/09/25 04:29:14;;;;;;;7.57;2.58;;;487.00;2380.80;;;;;;5075736;28;20108;-74
2023/09/25 04:31:40;;;;;;;9.70;3.47;;;487.00;2380.80;;;;;;5075761;28;20020;-75
2023/09/25 04:34:10;;;;;;;6.45;3.25;;;487.00;2380.80;;;;;;5075781;28;20028;-74
2023/09/25 04:36:37;;;;;;;7.82;3.97;;;487.00;2380.80;;;;;;5075823;28;20021;-74
2023/09/25 04:39:03;;;;;;;7.18;3.60;;;487.00;2380.80;;;;;;5076278;28;20116;-76
2023/09/25 04:41:29;;;;;;;8.52;3.40;;;487.00;2380.80;;;;;;5078258;28;20029;-75
2023/09/25 04:43:55;;;;;;;8.98;3.53;;;487.00;2380.80;;;;;;5077148;28;20025;-74
2023/09/25 04:46:21;;;;;;;7.30;3.65;;;487.00;2380.80;;;;;;5075471;28;20424;-76
2023/09/25 04:48:47;;;;;;;9.63;3.83;;;486.90;2380.80;;;;;;5075513;28;20052;-74
2023/09/25 04:51:16;;;;;;;7.47;3.10;;;487.00;2380.80;;;;;;5075386;28;20078;-75
2023/09/25 04:53:42;;;;;;;8.13;3.55;;;487.00;2380.80;;;;;;5075365;28;20028;-75
2023/09/25 04:56:10;;;;;;;6.60;3.50;;;487.00;2380.80;;;;;;5073971;28;20447;-74
2023/09/25 04:58:36;;;;;;;9.65;3.28;;;487.00;2380.80;;;;;;5075356;28;20033;-74
2023/09/25 05:01:02;;;;;;;7.75;3.67;;;487.00;2380.80;;;;;;5075024;28;20024;-74
2023/09/25 05:03:27;;;;;;;7.65;3.42;;;487.10;2380.80;;;;;;5075344;28;20024;-76
2023/09/25 05:05:53;;;;;;;8.60;4.10;;;487.10;2380.80;;;;;;5075263;28;20063;-75
2023/09/25 05:08:19;;;;;;;7.63;3.88;;;487.00;2380.80;;;;;;5074895;28;20432;-75
2023/09/25 05:10:45;;;;;;;9.10;4.00;;;487.10;2380.80;;;;;;5074857;28;20028;-75
2023/09/25 05:13:11;;;;;;;9.32;4.65;;;487.00;2380.80;;;;;;5075263;28;20458;-76
2023/09/25 05:15:37;;;;;;;11.77;5.00;;;487.00;2380.80;;;;;;5075019;28;20099;-74
2023/09/25 05:18:03;;;;;;;8.98;4.95;;;487.00;2380.80;;;;;;5074672;28;20024;-76
2023/09/25 05:20:29;;;;;;;10.65;5.25;;;487.00;2380.80;;;;;;5074883;28;20485;-76
2023/09/25 05:22:56;;;;;;;15.93;6.22;;;487.20;2380.80;;;;;;5074055;28;20031;-75
2023/09/25 05:25:23;;;;;;;10.13;4.90;;;487.30;2380.80;;;;;;5075210;28;20397;-75
2023/09/25 05:27:54;;;;;;;13.30;6.03;;;487.30;2380.80;;;;;;5074742;28;20020;-75
2023/09/25 05:30:20;;;;;;;8.18;5.22;;;512.00;2380.80;;;;;;5074506;28;20489;-76
2023/09/25 05:32:51;;;;;;;10.07;5.65;;;512.00;2380.80;;;;;;5074355;28;20052;-75
2023/09/25 05:35:17;;;;;;;19.63;6.07;;;512.00;2380.80;;;;;;5074366;28;20555;-75
2023/09/25 05:37:45;;;;;;;11.13;6.65;;;487.30;2380.80;;;;;;5074453;28;20115;-75
2023/09/25 05:40:12;;;;;;;11.18;5.43;;;512.00;2380.80;;;;;;5074355;28;20037;-76
2023/09/25 05:42:39;;;;;;;9.85;6.07;;;512.00;2380.80;;;;;;5073913;28;20103;-74
2023/09/25 05:45:06;;;;;;;11.48;6.32;;;512.00;2380.80;;;;;;5073797;28;20016;-75
2023/09/25 05:47:32;;;;;;;9.77;5.80;;;512.00;2380.80;;;;;;5068727;28;20489;-72
2023/09/25 05:49:58;;;;;;;12.50;7.53;;;512.00;2380.80;;;;;;5065865;28;20143;-74
2023/09/25 05:52:23;;;;;;;11.40;6.70;;;512.00;2380.80;;;;;;5069916;28;20489;-73
2023/09/25 05:54:49;;;;;;;16.08;6.50;;;487.30;2380.80;;;;;;5065732;28;20071;-73
2023/09/25 05:57:15;;;;;;;11.73;6.03;;;512.00;2380.80;;;;;;5062312;28;20009;-74
2023/09/25 05:59:41;;;;;;;11.40;5.72;;;512.00;2380.80;;;;;;5067010;28;20020;-73
2023/09/25 06:02:09;;;;;;;12.90;6.43;;;512.10;2380.80;;;;;;5071934;28;20078;-74
2023/09/25 06:04:36;;;;;;;15.30;6.88;;;512.20;2380.80;;;;;;5073440;28;20068;-75
2023/09/25 06:07:05;;;;;;;10.95;6.38;;;512.40;2380.80;;;;;;5074118;28;20536;-74
2023/09/25 06:09:32;;;;;;;9.95;6.25;;;512.40;2380.80;;;;;;5077600;28;20079;-76
2023/09/25 06:11:58;;;;;;;9.52;6.20;;;512.30;2380.80;;;;;;5066573;28;20029;-74
2023/09/25 06:14:25;;;;;;;9.70;5.43;;;512.10;2380.80;;;;;;5061559;28;20040;-74
2023/09/25 06:16:54;;;;;;;9.73;5.88;;;512.20;2380.80;;;;;;5068063;28;20046;-75
2023/09/25 06:19:20;;;;;;;9.13;5.40;;;512.20;2380.80;;;;;;5066601;28;20013;-74
2023/09/25 06:21:47;;;;;;;9.63;6.45;;;512.30;2380.80;;;;;;5077552;28;20477;-75
2023/09/25 06:24:13;;;;;;;9.48;6.60;;;512.20;2380.80;;;;;;5056902;28;20013;-74
2023/09/25 06:26:46;;;;;;;12.35;6.65;;;512.20;2380.80;;;;;;5056932;28;20017;-75
2023/09/25 06:29:12;;;;;;;13.10;7.25;;;512.20;2380.80;;;;;;5073750;28;20020;-74
2023/09/25 06:31:38;;;;;;;14.32;8.07;;;512.20;2380.80;;;;;;5062681;28;20020;-75
2023/09/25 06:34:05;;;;;;;10.48;6.63;;;512.30;2380.80;;;;;;5070652;28;20054;-74
2023/09/25 06:36:34;;;;;;;15.68;7.43;;;512.30;2380.80;;;;;;5057639;28;20031;-74
2023/09/25 06:39:00;;;;;;;10.18;6.70;;;512.40;2380.80;;;;;;5073870;28;20040;-75
2023/09/25 06:41:26;;;;;;;11.00;7.15;;;512.50;2380.80;;;;;;5077014;28;20021;-74
2023/09/25 06:43:53;;;;;;;12.18;8.30;;;512.60;2380.80;;;;;;5071795;28;20021;-75
2023/09/25 06:46:18;;;;;;;14.13;7.25;;;512.60;2380.80;;;;;;5076139;28;20024;-73
2023/09/25 06:48:49;;;;;;;10.30;6.35;;;512.50;2380.80;;;;;;5067628;28;20070;-75
2023/09/25 06:51:15;;;;;;;12.43;6.85;;;512.40;2380.80;;;;;;5071414;28;20359;-75
2023/09/25 06:53:40;;;;;;;14.93;7.10;;;512.50;2380.80;;;;;;5073514;28;20039;-73
2023/09/25 06:56:06;;;;;;;15.27;7.60;;;512.50;2380.80;;;;;;5074383;28;20372;-73
2023/09/25 06:58:32;;;;;;;13.80;8.18;;;512.40;2380.80;;;;;;5064926;28;20108;-73
2023/09/25 07:00:58;;;;;;;13.07;7.88;;;512.50;2380.80;;;;;;5070076;28;20016;-73
2023/09/25 07:03:23;;;;;;;15.77;8.20;;;512.70;2380.80;;;;;;5064632;28;20024;-75
2023/09/25 07:05:49;;;;;;;15.05;8.07;;;512.90;2380.80;;;;;;5058416;28;20114;-75
2023/09/25 07:08:15;;;;;;;16.58;10.35;;;512.90;2380.80;;;;;;5065372;28;20064;-75
2023/09/25 07:10:48;;;;;;;15.43;8.55;;;512.80;2380.80;;;;;;5070019;28;20029;-74
2023/09/25 07:13:15;;;;;;;11.32;7.07;;;512.90;2380.80;;;;;;5075446;28;20035;-74
2023/09/25 07:15:41;;;;;;;9.20;6.88;;;512.70;2380.80;;;;;;5066026;28;20028;-75
2023/09/25 07:18:07;;;;;;;11.18;8.38;;;512.80;2380.80;;;;;;5067334;28;20017;-75
2023/09/25 07:20:33;;;;;;;14.65;8.00;;;512.90;2380.80;;;;;;5084825;28;20031;-75
2023/09/25 07:22:58;;;;;;;12.05;8.35;;;512.90;2380.80;;;;;;5087627;28;20024;-75
2023/09/25 07:25:24;;;;;;;12.30;7.38;;;512.80;2380.80;;;;;;5073197;28;20373;-74
2023/09/25 07:27:50;;;;;;;17.15;8.05;;;512.80;2380.80;;;;;;5078382;28;20411;-75
2023/09/25 07:30:16;;;;;;;14.82;7.72;;;512.90;2380.80;;;;;;5085404;28;20054;-75
2023/09/25 07:32:42;;;;;;;14.40;8.40;;;537.60;2406.40;;;;;;5081392;28;20040;-74
2023/09/25 07:35:15;;;;;;;15.98;7.95;;;537.60;2406.40;;;;;;5089402;28;20066;-75
2023/09/25 07:37:44;;;;;;;18.35;8.70;;;512.90;2380.80;;;;;;5075083;28;20119;-75
2023/09/25 07:40:12;;;;;;;12.48;7.85;;;537.60;2406.40;;;;;;5080551;28;20036;-74
2023/09/25 07:42:38;;;;;;;22.95;9.57;;;512.90;2380.80;;;;;;5071958;28;20394;-75
2023/09/25 07:45:06;;;;;;;13.85;8.60;;;;;;;;;;5067639;28;20027;-76
2023/09/25 07:47:38;;;;;;;20.60;9.25;;;;;;;;;;5070938;28;20021;-75
2023/09/25 07:50:10;;;;;;;40.70;28.08;;;537.80;2406.40;;;;;;5069476;28;20029;-75
2023/09/25 07:52:39;;;;;;;16.98;9.60;;;537.60;2406.40;;;;;;5062674;28;20020;-75
2023/09/25 07:55:11;;;;;;;13.32;8.52;;;537.70;2406.40;;;;;;5063219;28;20077;-74
2023/09/25 07:57:42;;;;;;;19.00;11.75;;;537.70;2406.40;;;;;;5072999;28;20020;-76
2023/09/25 08:00:23;;;;;;;73.03;52.42;;;537.80;2406.40;;;;;;5081416;28;20021;-75
2023/09/25 08:02:52;;;;;;;20.20;12.88;;;538.00;2406.40;;;;;;5068501;28;20024;-75
2023/09/25 08:05:24;;;;;;;24.95;15.52;;;538.20;2406.40;;;;;;5071591;28;20028;-76
2023/09/25 08:07:51;;;;;;;10.82;7.75;;;538.30;2406.40;;;;;;5064495;28;20029;-75
2023/09/25 08:10:17;;;;;;;14.10;7.53;;;538.40;2406.40;;;;;;5064688;28;20036;-75
2023/09/25 08:12:44;;;;;;;18.10;10.18;;;538.50;2406.40;;;;;;5076885;28;20024;-77
2023/09/25 08:15:10;;;;;;;17.40;8.90;;;563.30;2432.00;;;;;;5079803;28;20036;-76
2023/09/25 08:17:37;;;;;;;10.90;7.60;;;563.60;2150.40;;;;;;5076078;28;20154;-76
2023/09/25 08:20:17;;;;;;;19.60;10.43;;;563.70;2150.40;;;;;;5079296;28;20024;-76
2023/09/25 08:22:43;;;;;;;22.50;15.30;;;563.70;2432.00;;;;;;5065681;28;20063;-74
2023/09/25 08:25:09;;;;;;;26.88;15.85;;;563.80;2432.00;;;;;;5077735;28;20029;-76
2023/09/25 08:27:37;;;;;;;24.33;17.17;;;563.80;2432.00;;;;;;5076743;28;20103;-75
2023/09/25 08:30:04;;;;;;;24.05;15.13;;;563.70;2432.00;;;;;;5075438;28;20055;-75
2023/09/25 08:32:31;;;;;;;22.88;14.98;;;563.60;2432.00;;;;;;5076606;28;20021;-74
2023/09/25 08:34:57;;;;;;;22.73;14.35;;;563.70;2432.00;;;;;;5073611;28;20025;-75
2023/09/25 08:37:24;;;;;;;19.67;12.65;;;563.80;2252.80;;;;;;5071988;28;20470;-74
2023/09/25 08:39:53;;;;;;;20.25;12.00;;;563.80;2432.00;;;;;;5084013;28;20066;-75
2023/09/25 08:42:24;;;;;;;19.30;12.80;;;563.80;2432.00;;;;;;5075566;28;20024;-76
2023/09/25 08:44:51;;;;;;;23.38;14.85;;;563.80;2432.00;;;;;;5068461;28;20025;-76
2023/09/25 08:47:21;;;;;;;19.15;13.60;;;563.80;2432.00;;;;;;5068380;28;20092;-76
2023/09/25 08:49:51;;;;;;;19.58;12.25;;;563.90;2432.00;;;;;;5078576;28;20435;-75
2023/09/25 08:52:18;;;;;;;15.43;9.18;;;564.00;2432.00;;;;;;5064737;28;20020;-79
2023/09/25 08:54:44;;;;;;;16.33;8.77;;;563.90;2329.60;;;;;;5076957;28;20040;-75
2023/09/25 08:57:12;;;;;;;12.38;7.85;;;563.90;2252.80;;;;;;5069596;28;20465;-74
2023/09/25 08:59:39;;;;;;;10.85;7.13;;;564.00;2073.60;;;;;;5070354;28;20162;-74
2023/09/25 09:02:08;;;;;;;11.77;7.35;;;564.00;2380.80;;;;;;5074904;28;20028;-75
2023/09/25 09:04:35;;;;;;;16.25;8.68;;;564.00;2432.00;;;;;;5076645;28;20063;-75
2023/09/25 09:07:01;;;;;;;19.33;8.93;;;564.00;2432.00;;;;;;5073206;28;20461;-75
2023/09/25 09:09:27;;;;;;;18.77;11.77;;;564.00;2432.00;;;;;;5074529;28;20028;-74
2023/09/25 09:11:53;;;;;;;13.77;8.00;;;564.00;2432.00;;;;;;5069421;28;20044;-74
2023/09/25 09:14:39;;;;;;;10.95;6.45;;;564.10;2432.00;;;;;;5066880;28;20527;-73
2023/09/25 09:17:06;;;;;;;10.52;6.40;;;564.10;2252.80;;;;;;5073083;28;20024;-75
2023/09/25 09:19:36;;;;;;;11.45;6.72;;;588.80;2201.60;;;;;;5061711;28;20027;-74
2023/09/25 09:22:05;;;;;;;17.42;12.52;;;588.80;2432.00;;;;;;5064782;28;20020;-74
2023/09/25 09:24:33;;;;;;;14.35;10.63;;;589.20;2432.00;;;;;;5077596;28;20478;-74
2023/09/25 09:26:59;;;;;;;16.27;9.02;;;589.50;2432.00;;;;;;5072618;28;20127;-74
2023/09/25 09:29:26;;;;;;;19.70;7.60;;;;;;;;;;5061007;28;20067;-75
2023/09/25 09:31:53;;;;;;;10.23;6.45;;;640.10;2432.00;;;;;;5075606;28;20054;-74
2023/09/25 09:34:22;;;;;;;11.88;6.28;;;640.10;2432.00;;;;;;5074853;28;20035;-74
2023/09/25 09:36:52;;;;;;;9.32;5.78;;;640.60;2432.00;;;;;;5065103;28;20020;-74
2023/09/25 09:39:25;;;;;;;10.13;6.15;;;665.60;2432.00;;;;;;5076928;28;20126;-74
2023/09/25 09:41:55;;;;;;;8.10;5.63;;;;;;;;;;5067572;28;20408;-74
2023/09/25 09:44:22;;;;;;;6.97;4.15;;;666.30;2432.00;;;;;;5064388;28;20032;-74
2023/09/25 09:46:51;;;;;;;8.40;4.63;;;666.50;2432.00;;;;;;5074003;28;20220;-74
2023/09/25 09:49:21;;;;;;;10.85;3.28;;;666.00;2432.00;;;;;;5073782;28;20086;-75
2023/09/25 09:51:49;;;;;;;10.77;3.80;;;665.90;2432.00;;;;;;5059599;28;20017;-74
2023/09/25 09:54:21;;;;;;;6.57;3.05;;;666.30;2432.00;;;;;;5072733;28;20374;-74
2023/09/25 09:56:48;;;;;;;6.05;3.40;;;666.30;2432.00;;;;;;5073494;28;20028;-75
2023/09/25 09:59:17;;;;;;;11.50;3.78;;;666.30;2432.00;;;;;;5077644;28;20507;-74
2023/09/25 10:01:47;;;;;;;5.32;3.47;;;691.20;2432.00;;;;;;5071990;28;20029;-74
2023/09/25 10:04:14;;;;;;;6.65;3.47;;;691.20;2432.00;;;;;;5077420;28;20109;-75
2023/09/25 10:06:48;;;;;;;12.48;4.22;;;691.40;2432.00;;;;;;5069506;28;20021;-74
2023/09/25 10:09:15;;;;;;;8.23;3.35;;;691.70;2432.00;;;;;;5070442;28;20468;-74
2023/09/25 10:11:43;;;;;;;9.35;3.05;;;;;;;;;;5068039;28;20500;-76
2023/09/25 10:14:09;;;;;;;7.00;3.53;;;691.70;2432.00;;;;;;5072208;28;20478;-75
2023/09/25 10:16:56;;;;;;;7.93;3.08;;;691.90;2432.00;;;;;;5081825;28;20380;-74
2023/09/25 10:19:32;;;;;;;7.07;3.72;;;691.90;2432.00;;;;;;5082668;28;20389;-75
2023/09/25 10:22:13;;;;;;;8.80;3.28;;;;;;;;;;5063469;28;20670;-75
2023/09/25 10:24:42;;;;;;;6.90;3.45;;;717.20;2432.00;;;;;;5068842;28;20082;-74
2023/09/25 10:27:10;;;;;;;9.18;3.53;;;717.40;2432.00;;;;;;5065414;28;20032;-75
2023/09/25 10:29:37;;;;;;;10.52;4.18;;;717.50;2432.00;;;;;;5064398;28;20053;-75
2023/09/25 10:32:04;;;;;;;7.85;3.70;;;717.70;2432.00;;;;;;5062665;28;20028;-74
2023/09/25 10:34:31;;;;;;;7.30;3.50;;;742.40;2432.00;;;;;;5067411;28;20036;-75
2023/09/25 10:36:59;;;;;;;6.63;3.70;;;717.50;2432.00;;;;;;5068234;28;20153;-74
2023/09/25 10:39:29;;;;;;;7.63;4.15;;;717.70;2432.00;;;;;;5061270;28;20049;-74
2023/09/25 10:42:16;;;;;;;9.00;3.97;;;742.40;2432.00;;;;;;5065767;28;20028;-74
2023/09/25 10:44:44;;;;;;;5.20;3.70;;;717.70;2432.00;;;;;;5064169;28;20425;-74
2023/09/25 10:47:11;;;;;;;8.05;3.90;;;;;;;;;;5072517;28;20096;-75
2023/09/25 10:49:37;;;;;;;10.88;4.25;;;;;;;;;;5066281;28;20031;-74
2023/09/25 10:52:03;;;;;;;13.27;4.45;;;;;;;;;;5064321;28;20020;-75
2023/09/25 10:54:30;;;;;;;5.72;3.80;;;;;;;;;;5066417;28;20414;-74
2023/09/25 10:56:58;;;;;;;9.52;4.43;;;;;;;;;;5073478;28;20028;-75
2023/09/25 10:59:25;;;;;;;9.32;4.72;;;742.90;2432.00;;;;;;5062012;28;20408;-75
2023/09/25 11:01:52;;;;;;;6.78;4.22;;;742.90;2432.00;;;;;;5068213;28;20021;-74
2023/09/25 11:04:18;;;;;;;12.23;4.90;;;742.50;2432.00;;;;;;5079349;28;20135;-75
2023/09/25 11:06:45;;;;;;;12.38;4.85;;;717.00;2432.00;;;;;;5067008;28;20103;-74
2023/09/25 11:09:16;;;;;;;7.60;4.65;;;717.10;2432.00;;;;;;5088395;28;20099;-75
2023/09/25 11:11:42;;;;;;;16.23;5.22;;;717.70;2432.00;;;;;;5071552;28;20081;-75
2023/09/25 11:14:08;;;;;;;10.50;4.78;;;742.50;2432.00;;;;;;5070639;28;20060;-76
2023/09/25 11:16:34;;;;;;;8.50;5.15;;;742.60;2432.00;;;;;;5082967;28;20585;-75
2023/09/25 11:19:14;;;;;;;11.23;5.10;;;742.60;2432.00;;;;;;5072175;28;20027;-74
2023/09/25 11:21:44;;;;;;;8.68;4.78;;;742.90;2432.00;;;;;;5077125;28;20016;-75
2023/09/25 11:24:10;;;;;;;11.35;5.07;;;742.90;2432.00;;;;;;5078477;28;20085;-77
2023/09/25 11:26:41;;;;;;;11.93;5.20;;;742.60;2432.00;;;;;;5065083;28;20103;-74
2023/09/25 11:29:10;;;;;;;13.68;5.13;;;742.50;2432.00;;;;;;5061109;28;20028;-76
2023/09/25 11:31:37;;;;;;;13.55;5.10;;;742.60;2432.00;;;;;;5069272;28;20025;-75
2023/09/25 11:34:03;;;;;;;7.95;4.90;;;742.70;2432.00;;;;;;5076003;28;20043;-76
2023/09/25 11:36:30;;;;;;;14.63;4.88;;;717.70;2432.00;;;;;;5069253;28;20025;-76
2023/09/25 11:38:57;;;;;;;6.07;4.18;;;742.60;2432.00;;;;;;5077343;28;20024;-75
2023/09/25 11:41:23;;;;;;;10.23;4.88;;;742.60;2432.00;;;;;;5069894;28;20043;-75
2023/09/25 11:43:49;;;;;;;7.55;4.80;;;742.50;2432.00;;;;;;5079424;28;20021;-75
2023/09/25 11:46:15;;;;;;;9.45;4.65;;;742.60;2432.00;;;;;;5058216;28;20384;-75
2023/09/25 11:48:41;;;;;;;8.50;4.32;;;717.50;2432.00;;;;;;5061797;28;20036;-74
2023/09/25 11:51:07;;;;;;;9.20;4.63;;;742.40;2432.00;;;;;;5072189;28;20031;-74
2023/09/25 11:53:33;;;;;;;7.38;4.30;;;717.50;2432.00;;;;;;5067712;28;20136;-74
2023/09/25 11:55:59;;;;;;;9.38;5.15;;;717.60;2432.00;;;;;;5068654;28;20096;-76
2023/09/25 11:58:28;;;;;;;9.13;5.00;;;717.40;2432.00;;;;;;5066523;28;20078;-76
2023/09/25 12:00:54;;;;;;;9.45;4.15;;;717.30;2432.00;;;;;;5074466;28;20029;-76
2023/09/25 12:03:19;;;;;;;14.13;4.20;;;716.90;2432.00;;;;;;5070612;28;20025;-78
2023/09/25 12:05:45;;;;;;;15.25;4.45;;;692.10;2432.00;;;;;;5073890;28;20028;-73
2023/09/25 12:08:12;;;;;;;8.70;4.30;;;692.00;2432.00;;;;;;5072517;28;20602;-73
2023/09/25 12:10:39;;;;;;;9.25;4.25;;;692.00;2432.00;;;;;;5063096;28;20757;-73
2023/09/25 12:13:06;;;;;;;12.65;5.15;;;691.80;2432.00;;;;;;5063888;28;20032;-73
2023/09/25 12:15:32;;;;;;;12.68;4.10;;;692.00;2432.00;;;;;;5077028;28;20070;-73
2023/09/25 12:17:57;;;;;;;10.60;4.43;;;692.10;2432.00;;;;;;5075901;28;20020;-74